createdAt,value
2023-01-09T00:01:29.220Z,8.21
2023-01-09T00:03:56.071Z,8.14
2023-01-09T00:06:22.950Z,8.18
2023-01-09T00:08:49.797Z,8.28
2023-01-09T00:11:16.630Z,8.23
2023-01-09T00:13:43.618Z,8.24
2023-01-09T00:16:10.947Z,8.25
2023-01-09T00:18:37.811Z,8.45
2023-01-09T00:21:05.789Z,8.29
2023-01-09T00:23:33.030Z,8.30
2023-01-09T00:26:10.536Z,8.31
2023-01-09T00:28:37.666Z,8.26
2023-01-09T00:31:05.358Z,8.21
2023-01-09T00:33:36.615Z,8.05
2023-01-09T00:36:03.502Z,7.94
2023-01-09T00:38:30.403Z,7.83
2023-01-09T00:40:58.249Z,7.66
2023-01-09T00:43:28.110Z,7.78
2023-01-09T00:45:55.123Z,7.68
2023-01-09T00:48:26.843Z,7.59
2023-01-09T00:50:55.341Z,7.70
2023-01-09T00:53:23.340Z,7.60
2023-01-09T00:55:51.475Z,7.53
2023-01-09T00:58:18.711Z,7.51
2023-01-09T01:00:45.519Z,7.80
2023-01-09T01:03:12.441Z,7.81
2023-01-09T01:05:58.208Z,7.78
2023-01-09T01:08:25.063Z,7.70
2023-01-09T01:10:52.030Z,7.64
2023-01-09T01:13:18.874Z,7.63
2023-01-09T01:15:46.275Z,7.52
2023-01-09T01:18:13.613Z,7.59
2023-01-09T01:20:40.952Z,7.65
2023-01-09T01:23:08.010Z,7.54
2023-01-09T01:25:41.831Z,7.67
2023-01-09T01:28:09.363Z,7.64
2023-01-09T01:30:40.323Z,7.37
2023-01-09T01:33:07.289Z,7.42
2023-01-09T01:35:34.194Z,7.39
2023-01-09T01:38:01.235Z,7.43
2023-01-09T01:40:28.641Z,7.43
2023-01-09T01:42:55.799Z,7.31
2023-01-09T01:45:24.179Z,7.30
2023-01-09T01:47:58.141Z,7.37
2023-01-09T01:50:36.977Z,7.51
2023-01-09T01:53:06.653Z,7.34
2023-01-09T01:55:34.858Z,7.35
2023-01-09T01:58:04.077Z,7.31
2023-01-09T02:00:32.374Z,7.34
2023-01-09T02:03:00.923Z,7.44
2023-01-09T02:05:28.215Z,7.32
2023-01-09T02:07:55.124Z,7.36
2023-01-09T02:10:23.541Z,7.33
2023-01-09T02:12:50.712Z,7.33
2023-01-09T02:15:18.525Z,7.23
2023-01-09T02:18:24.071Z,7.31
2023-01-09T02:21:08.151Z,7.24
2023-01-09T02:23:53.724Z,7.27
2023-01-09T02:26:23.886Z,7.27
2023-01-09T02:29:09.546Z,7.42
2023-01-09T02:31:48.375Z,7.29
2023-01-09T02:34:24.387Z,7.43
2023-01-09T02:36:53.992Z,7.37
2023-01-09T02:39:31.711Z,7.28
2023-01-09T02:42:04.086Z,7.35
2023-01-09T02:44:32.668Z,7.26
2023-01-09T02:47:05.339Z,7.35
2023-01-09T02:49:36.748Z,7.31
2023-01-09T02:52:12.817Z,7.18
2023-01-09T02:55:03.697Z,7.29
2023-01-09T02:57:41.140Z,7.19
2023-01-09T03:00:28.207Z,7.33
2023-01-09T03:03:08.756Z,7.30
2023-01-09T03:05:50.775Z,7.43
2023-01-09T03:08:22.842Z,7.35
2023-01-09T03:10:55.332Z,7.33
2023-01-09T03:13:23.973Z,7.08
2023-01-09T03:15:52.237Z,7.03
2023-01-09T03:18:21.538Z,7.00
2023-01-09T03:20:48.840Z,7.23
2023-01-09T03:23:15.792Z,7.15
2023-01-09T03:25:42.651Z,7.08
2023-01-09T03:28:17.880Z,7.20
2023-01-09T03:30:44.697Z,7.25
2023-01-09T03:33:11.546Z,7.07
2023-01-09T03:35:38.352Z,7.02
2023-01-09T03:38:07.250Z,7.06
2023-01-09T03:40:34.705Z,7.05
2023-01-09T03:43:01.683Z,7.12
2023-01-09T03:45:28.509Z,7.09
2023-01-09T03:47:58.384Z,6.97
2023-01-09T03:50:25.256Z,6.91
2023-01-09T03:52:52.299Z,7.01
2023-01-09T03:55:19.122Z,6.87
2023-01-09T03:57:45.977Z,7.00
2023-01-09T04:00:12.982Z,6.99
2023-01-09T04:02:39.892Z,7.05
2023-01-09T04:05:07.223Z,7.05
2023-01-09T04:07:34.312Z,7.04
2023-01-09T04:10:01.120Z,7.11
2023-01-09T04:12:27.952Z,7.03
2023-01-09T04:14:54.864Z,7.06
2023-01-09T04:17:21.675Z,7.22
2023-01-09T04:19:48.595Z,7.27
2023-01-09T04:22:15.448Z,7.26
2023-01-09T04:24:42.238Z,7.14
2023-01-09T04:27:09.175Z,7.03
2023-01-09T04:29:35.974Z,6.98
2023-01-09T04:32:02.827Z,6.95
2023-01-09T04:34:29.627Z,6.97
2023-01-09T04:36:56.485Z,6.97
2023-01-09T04:39:23.435Z,6.97
2023-01-09T04:41:50.317Z,6.97
2023-01-09T04:44:21.214Z,7.15
2023-01-09T04:46:48.421Z,7.00
2023-01-09T04:49:15.357Z,6.97
2023-01-09T04:51:42.250Z,6.84
2023-01-09T04:54:09.060Z,6.78
2023-01-09T04:56:36.352Z,6.71
2023-01-09T04:59:04.182Z,6.63
2023-01-09T05:01:31.317Z,6.36
2023-01-09T05:03:58.437Z,6.40
2023-01-09T05:06:25.331Z,6.23
2023-01-09T05:08:52.213Z,6.17
2023-01-09T05:11:19.456Z,6.08
2023-01-09T05:13:46.284Z,6.12
2023-01-09T05:16:13.222Z,5.92
2023-01-09T05:18:40.066Z,5.87
2023-01-09T05:21:06.885Z,5.95
2023-01-09T05:23:33.747Z,6.03
2023-01-09T05:26:00.607Z,6.01
2023-01-09T05:28:27.415Z,5.89
2023-01-09T05:30:54.223Z,5.75
2023-01-09T05:33:21.155Z,5.76
2023-01-09T05:35:48.011Z,5.63
2023-01-09T05:38:14.818Z,5.56
2023-01-09T05:40:41.655Z,5.50
2023-01-09T05:43:08.504Z,5.44
2023-01-09T05:45:35.623Z,5.44
2023-01-09T05:48:03.794Z,5.41
2023-01-09T05:50:30.587Z,5.41
2023-01-09T05:52:57.461Z,5.35
2023-01-09T05:55:24.275Z,5.32
2023-01-09T05:57:51.136Z,5.32
2023-01-09T06:00:18.331Z,5.42
2023-01-09T06:02:45.287Z,5.43
2023-01-09T06:05:12.165Z,5.67
2023-01-09T06:07:40.589Z,5.70
2023-01-09T06:10:08.345Z,5.89
2023-01-09T06:12:35.168Z,6.06
2023-01-09T06:15:02.048Z,6.09
2023-01-09T06:17:28.881Z,6.00
2023-01-09T06:19:55.674Z,6.22
2023-01-09T06:22:22.479Z,6.18
2023-01-09T06:24:49.284Z,6.16
2023-01-09T06:27:16.218Z,6.29
2023-01-09T06:29:43.053Z,6.37
2023-01-09T06:32:09.878Z,6.40
2023-01-09T06:34:36.735Z,6.25
2023-01-09T06:37:03.578Z,6.46
2023-01-09T06:39:30.421Z,6.48
2023-01-09T06:41:57.251Z,6.43
2023-01-09T06:44:24.047Z,6.52
2023-01-09T06:46:50.899Z,6.45
2023-01-09T06:49:23.247Z,6.56
2023-01-09T06:51:52.797Z,6.57
2023-01-09T06:54:19.718Z,6.55
2023-01-09T06:56:46.894Z,6.47
2023-01-09T06:59:13.789Z,6.60
2023-01-09T07:01:40.768Z,6.53
2023-01-09T07:04:09.790Z,6.45
2023-01-09T07:06:36.921Z,6.37
2023-01-09T07:09:05.823Z,6.37
2023-01-09T07:11:32.857Z,6.34
2023-01-09T07:13:59.736Z,6.30
2023-01-09T07:16:26.589Z,6.47
2023-01-09T07:18:54.698Z,6.40
2023-01-09T07:21:21.632Z,6.33
2023-01-09T07:23:48.478Z,6.32
2023-01-09T07:26:15.379Z,6.37
2023-01-09T07:28:42.188Z,6.24
2023-01-09T07:31:09.048Z,6.41
2023-01-09T07:33:35.944Z,6.54
2023-01-09T07:36:02.776Z,6.47
2023-01-09T07:38:29.767Z,6.51
2023-01-09T07:40:56.617Z,6.57
2023-01-09T07:43:23.475Z,6.48
2023-01-09T07:45:50.267Z,6.42
2023-01-09T07:48:17.110Z,6.45
2023-01-09T07:50:43.932Z,6.45
2023-01-09T07:53:10.735Z,6.42
2023-01-09T07:55:37.590Z,6.46
2023-01-09T07:58:04.403Z,6.48
2023-01-09T08:00:33.072Z,6.71
2023-01-09T08:03:00.117Z,6.63
2023-01-09T08:05:26.992Z,6.78
2023-01-09T08:07:53.844Z,6.54
2023-01-09T08:10:20.705Z,6.72
2023-01-09T08:12:47.897Z,6.64
2023-01-09T08:15:15.205Z,6.63
2023-01-09T08:17:42.810Z,6.71
2023-01-09T08:20:11.644Z,6.67
2023-01-09T08:22:39.081Z,6.88
2023-01-09T08:25:06.102Z,6.88
2023-01-09T08:27:33.076Z,6.78
2023-01-09T08:29:59.880Z,6.77
2023-01-09T08:32:26.786Z,6.93
2023-01-09T08:34:53.732Z,6.92
2023-01-09T08:37:20.666Z,6.86
2023-01-09T08:39:49.237Z,6.84
2023-01-09T08:42:34.601Z,7.16
2023-01-09T08:45:20.299Z,7.06
2023-01-09T08:47:47.254Z,6.99
2023-01-09T08:50:14.277Z,7.10
2023-01-09T08:52:41.133Z,6.92
2023-01-09T08:55:08.216Z,6.94
2023-01-09T08:57:35.073Z,7.05
2023-01-09T09:00:02.174Z,7.22
2023-01-09T09:02:29.017Z,7.19
2023-01-09T09:04:56.286Z,7.20
2023-01-09T09:07:26.632Z,7.11
2023-01-09T09:09:53.780Z,7.26
2023-01-09T09:12:20.888Z,7.21
2023-01-09T09:15:06.459Z,7.26
2023-01-09T09:17:33.474Z,7.26
2023-01-09T09:20:00.524Z,7.30
2023-01-09T09:22:27.378Z,7.43
2023-01-09T09:24:54.316Z,7.35
2023-01-09T09:27:21.146Z,7.45
2023-01-09T09:29:47.982Z,7.39
2023-01-09T09:32:14.877Z,7.41
2023-01-09T09:34:41.705Z,7.30
2023-01-09T09:37:08.665Z,7.41
2023-01-09T09:39:35.544Z,7.42
2023-01-09T09:42:29.678Z,7.62
2023-01-09T09:45:03.206Z,7.54
2023-01-09T09:47:38.165Z,7.53
2023-01-09T09:50:23.842Z,7.46
2023-01-09T09:52:53.394Z,7.54
2023-01-09T09:55:20.188Z,7.43
2023-01-09T09:57:47.763Z,7.49
2023-01-09T10:00:16.246Z,7.39
2023-01-09T10:02:47.455Z,7.55
2023-01-09T10:05:17.059Z,7.58
2023-01-09T10:07:47.398Z,7.56
2023-01-09T10:10:20.502Z,7.38
2023-01-09T10:12:55.703Z,7.42
2023-01-09T10:15:30.753Z,7.52
2023-01-09T10:18:17.826Z,7.50
2023-01-09T10:20:47.430Z,7.65
2023-01-09T10:23:20.501Z,7.59
2023-01-09T10:25:59.867Z,7.54
2023-01-09T10:28:42.844Z,7.74
2023-01-09T10:31:17.341Z,7.80
2023-01-09T10:34:02.720Z,7.77
2023-01-09T10:36:36.846Z,7.79
2023-01-09T10:39:08.322Z,7.75
2023-01-09T10:41:42.321Z,7.78
2023-01-09T10:44:16.949Z,7.84
2023-01-09T10:46:49.126Z,7.84
2023-01-09T10:49:17.327Z,7.89
2023-01-09T10:52:02.370Z,7.87
2023-01-09T10:54:29.695Z,7.89
2023-01-09T10:56:56.588Z,7.83
2023-01-09T10:59:24.325Z,7.74
2023-01-09T11:01:51.387Z,7.89
2023-01-09T11:04:24.134Z,7.87
2023-01-09T11:06:54.811Z,7.81
2023-01-09T11:09:21.616Z,7.94
2023-01-09T11:11:48.490Z,8.03
2023-01-09T11:14:17.559Z,8.02
2023-01-09T11:16:51.620Z,8.04
2023-01-09T11:19:18.793Z,7.99
2023-01-09T11:21:45.611Z,8.14
2023-01-09T11:24:18.467Z,8.13
2023-01-09T11:26:46.263Z,7.28
2023-01-09T11:29:14.571Z,8.21
2023-01-09T11:31:43.248Z,8.13
2023-01-09T11:34:21.823Z,8.11
2023-01-09T11:36:49.683Z,8.05
2023-01-09T11:39:23.326Z,8.01
2023-01-09T11:41:57.876Z,7.96
2023-01-09T11:44:26.081Z,7.92
2023-01-09T11:46:53.395Z,8.21
2023-01-09T11:49:20.929Z,8.14
2023-01-09T11:52:04.290Z,8.06
2023-01-09T11:54:34.241Z,8.33
2023-01-09T11:57:01.188Z,8.37
2023-01-09T11:59:29.169Z,8.43
2023-01-09T12:02:15.057Z,7.78
2023-01-09T12:04:48.150Z,8.03
2023-01-09T12:07:23.228Z,7.98
2023-01-09T12:09:52.812Z,7.75
2023-01-09T12:12:22.438Z,7.99
2023-01-09T12:14:55.547Z,8.07
2023-01-09T12:17:22.349Z,8.09
2023-01-09T12:20:08.046Z,7.98
2023-01-09T12:22:34.831Z,7.91
2023-01-09T12:25:18.695Z,7.78
2023-01-09T12:27:54.542Z,7.88
2023-01-09T12:30:34.701Z,7.81
2023-01-09T12:33:01.651Z,7.89
2023-01-09T12:35:33.533Z,7.97
2023-01-09T12:38:14.678Z,8.10
2023-01-09T12:40:44.606Z,7.83
2023-01-09T12:43:24.675Z,7.80
2023-01-09T12:46:21.022Z,7.88
2023-01-09T12:49:15.073Z,7.84
2023-01-09T12:51:57.231Z,7.74
2023-01-09T12:54:39.056Z,7.69
2023-01-09T12:57:11.273Z,7.57
2023-01-09T12:59:40.869Z,7.55
2023-01-09T13:02:22.560Z,7.39
2023-01-09T13:04:56.446Z,7.47
2023-01-09T13:07:27.364Z,7.42
2023-01-09T13:09:58.419Z,7.48
2023-01-09T13:12:26.790Z,7.51
2023-01-09T13:15:00.695Z,7.28
2023-01-09T13:17:35.945Z,7.09
2023-01-09T13:20:02.785Z,7.25
2023-01-09T13:22:29.673Z,7.36
2023-01-09T13:25:11.683Z,7.36
2023-01-09T13:27:40.768Z,7.54
2023-01-09T13:30:19.989Z,7.36
2023-01-09T13:32:49.696Z,7.47
2023-01-09T13:35:16.526Z,7.62
2023-01-09T13:37:49.584Z,7.57
2023-01-09T13:40:19.582Z,7.48
2023-01-09T13:43:01.007Z,7.30
2023-01-09T13:45:28.964Z,7.40
2023-01-09T13:48:08.173Z,7.20
2023-01-09T13:50:35.652Z,7.21
2023-01-09T13:53:17.537Z,7.26
2023-01-09T13:55:59.717Z,7.09
2023-01-09T13:58:27.690Z,7.25
2023-01-09T14:00:55.919Z,7.21
2023-01-09T14:03:28.281Z,7.45
2023-01-09T14:05:55.113Z,7.50
2023-01-09T14:08:23.902Z,7.28
2023-01-09T14:10:52.914Z,7.42
2023-01-09T14:13:33.858Z,7.36
2023-01-09T14:16:20.193Z,7.46
2023-01-09T14:19:02.304Z,7.44
2023-01-09T14:21:43.542Z,7.32
2023-01-09T14:24:15.052Z,7.29
2023-01-09T14:26:41.878Z,7.20
2023-01-09T14:29:27.285Z,7.26
2023-01-09T14:32:14.174Z,7.35
2023-01-09T14:34:42.287Z,7.26
2023-01-09T14:37:12.300Z,7.08
2023-01-09T14:39:43.014Z,7.12
2023-01-09T14:42:15.774Z,7.42
2023-01-09T14:44:42.626Z,7.26
2023-01-09T14:47:17.210Z,7.35
2023-01-09T14:49:45.622Z,7.37
2023-01-09T14:52:21.148Z,7.38
2023-01-09T14:54:49.167Z,7.23
2023-01-09T14:57:26.170Z,7.07
2023-01-09T14:59:56.734Z,7.25
2023-01-09T15:02:24.235Z,7.24
2023-01-09T15:04:51.193Z,7.18
2023-01-09T15:07:23.024Z,7.19
2023-01-09T15:09:50.462Z,7.26
2023-01-09T15:12:20.498Z,7.21
2023-01-09T15:14:50.479Z,7.28
2023-01-09T15:17:18.494Z,7.13
2023-01-09T15:19:46.744Z,7.11
2023-01-09T15:22:30.194Z,7.10
2023-01-09T15:24:57.336Z,7.08
2023-01-09T15:27:24.790Z,6.91
2023-01-09T15:29:52.062Z,7.01
2023-01-09T15:32:23.603Z,6.90
2023-01-09T15:34:50.991Z,6.79
2023-01-09T15:37:24.747Z,6.75
2023-01-09T15:39:51.895Z,6.75
2023-01-09T15:42:48.651Z,6.83
2023-01-09T15:45:24.226Z,6.84
2023-01-09T15:47:51.233Z,6.81
2023-01-09T15:50:21.307Z,6.77
2023-01-09T15:52:48.968Z,6.65
2023-01-09T15:55:29.981Z,6.68
2023-01-09T15:57:57.329Z,6.67
2023-01-09T16:00:33.313Z,6.61
2023-01-09T16:03:10.602Z,6.62
2023-01-09T16:05:41.414Z,6.59
2023-01-09T16:08:29.532Z,6.48
2023-01-09T16:10:58.268Z,6.57
2023-01-09T16:13:26.143Z,6.46
2023-01-09T16:15:53.737Z,6.52
2023-01-09T16:18:22.428Z,6.62
2023-01-09T16:20:49.810Z,6.64
2023-01-09T16:23:35.947Z,6.56
2023-01-09T16:26:03.887Z,6.68
2023-01-09T16:28:30.814Z,6.66
2023-01-09T16:31:02.869Z,6.53
2023-01-09T16:33:30.638Z,6.53
2023-01-09T16:36:00.430Z,6.68
2023-01-09T16:38:27.323Z,6.70
2023-01-09T16:41:26.229Z,6.67
2023-01-09T16:43:53.176Z,6.72
2023-01-09T16:46:21.149Z,6.76
2023-01-09T16:48:48.467Z,6.80
2023-01-09T16:51:19.583Z,6.73
2023-01-09T16:53:46.428Z,6.68
2023-01-09T16:56:27.571Z,6.63
2023-01-09T16:58:54.779Z,6.54
2023-01-09T17:01:22.684Z,6.52
2023-01-09T17:03:50.043Z,6.54
2023-01-09T17:06:23.228Z,6.63
2023-01-09T17:08:51.452Z,6.79
2023-01-09T17:11:22.579Z,6.58
2023-01-09T17:13:49.886Z,6.65
2023-01-09T17:16:18.133Z,6.72
2023-01-09T17:18:45.074Z,6.67
2023-01-09T17:21:19.478Z,6.59
2023-01-09T17:23:46.574Z,6.66
2023-01-09T17:26:36.481Z,6.66
2023-01-09T17:29:03.974Z,6.55
2023-01-09T17:31:31.200Z,6.54
2023-01-09T17:33:58.765Z,6.56
2023-01-09T17:36:34.382Z,6.54
2023-01-09T17:39:01.708Z,6.52
2023-01-09T17:41:29.291Z,6.43
2023-01-09T17:43:57.194Z,6.45
2023-01-09T17:46:27.290Z,6.51
2023-01-09T17:48:54.327Z,6.51
2023-01-09T17:51:21.364Z,6.52
2023-01-09T17:53:48.448Z,6.60
2023-01-09T17:56:17.264Z,6.47
2023-01-09T17:58:45.659Z,6.33
2023-01-09T18:01:14.459Z,6.54
2023-01-09T18:03:41.589Z,6.53
2023-01-09T18:06:12.258Z,6.48
2023-01-09T18:08:39.673Z,6.37
2023-01-09T18:11:07.320Z,6.46
2023-01-09T18:13:34.184Z,6.54
2023-01-09T18:16:01.085Z,6.49
2023-01-09T18:18:28.574Z,6.42
2023-01-09T18:20:55.468Z,6.28
2023-01-09T18:23:22.778Z,6.16
2023-01-09T18:25:49.599Z,6.16
2023-01-09T18:28:16.794Z,6.27
2023-01-09T18:30:47.777Z,6.25
2023-01-09T18:33:15.150Z,6.31
2023-01-09T18:35:42.317Z,6.40
2023-01-09T18:38:09.732Z,6.41
2023-01-09T18:40:37.101Z,6.36
2023-01-09T18:43:05.966Z,6.39
2023-01-09T18:45:32.948Z,6.30
2023-01-09T18:48:00.051Z,6.36
2023-01-09T18:50:26.863Z,6.19
2023-01-09T18:52:54.370Z,6.33
2023-01-09T18:55:21.887Z,6.33
2023-01-09T18:57:48.867Z,6.27
2023-01-09T19:00:15.858Z,6.29
2023-01-09T19:02:42.661Z,6.26
2023-01-09T19:05:09.639Z,6.27
2023-01-09T19:07:39.967Z,6.22
2023-01-09T19:10:07.063Z,6.14
2023-01-09T19:12:33.983Z,6.31
2023-01-09T19:15:00.909Z,6.34
2023-01-09T19:17:27.749Z,6.21
2023-01-09T19:19:54.666Z,6.20
2023-01-09T19:22:21.517Z,5.99
2023-01-09T19:24:48.921Z,6.01
2023-01-09T19:27:15.770Z,6.03
2023-01-09T19:29:42.694Z,6.19
2023-01-09T19:32:09.540Z,5.97
2023-01-09T19:34:36.413Z,6.02
2023-01-09T19:37:03.362Z,6.04
2023-01-09T19:39:31.422Z,6.02
2023-01-09T19:41:58.380Z,6.07
2023-01-09T19:44:25.253Z,6.17
2023-01-09T19:46:52.071Z,6.02
2023-01-09T19:49:19.096Z,5.96
2023-01-09T19:51:45.947Z,5.99
2023-01-09T19:54:12.795Z,6.09
2023-01-09T19:56:40.786Z,6.11
2023-01-09T19:59:08.158Z,6.05
2023-01-09T20:01:36.653Z,6.04
2023-01-09T20:04:07.555Z,6.25
2023-01-09T20:06:34.878Z,6.00
2023-01-09T20:09:03.443Z,6.06
2023-01-09T20:11:30.736Z,6.19
2023-01-09T20:13:57.658Z,6.33
2023-01-09T20:16:29.768Z,6.19
2023-01-09T20:19:02.492Z,6.09
2023-01-09T20:21:29.919Z,5.97
2023-01-09T20:23:58.885Z,6.16
2023-01-09T20:26:26.450Z,6.07
2023-01-09T20:28:53.962Z,6.22
2023-01-09T20:31:21.938Z,6.07
2023-01-09T20:33:49.576Z,5.42
2023-01-09T20:36:16.797Z,6.00
2023-01-09T20:38:43.851Z,6.06
2023-01-09T20:41:22.348Z,6.12
2023-01-09T20:43:55.468Z,5.87
2023-01-09T20:46:23.627Z,5.76
2023-01-09T20:48:50.586Z,5.74
2023-01-09T20:51:17.850Z,5.91
2023-01-09T20:53:45.615Z,5.78
2023-01-09T20:56:12.961Z,5.85
2023-01-09T20:58:40.918Z,5.83
2023-01-09T21:01:08.758Z,5.99
2023-01-09T21:03:35.665Z,5.82
2023-01-09T21:06:09.783Z,5.73
2023-01-09T21:08:37.275Z,5.80
2023-01-09T21:11:04.837Z,5.70
2023-01-09T21:13:31.792Z,5.71
2023-01-09T21:16:02.594Z,5.81
2023-01-09T21:18:29.609Z,5.73
2023-01-09T21:20:56.522Z,5.70
2023-01-09T21:23:23.453Z,5.63
2023-01-09T21:25:50.268Z,5.77
2023-01-09T21:28:18.588Z,5.69
2023-01-09T21:30:49.437Z,5.77
2023-01-09T21:33:21.392Z,5.85
2023-01-09T21:35:55.222Z,5.92
2023-01-09T21:38:22.870Z,5.88
2023-01-09T21:40:50.942Z,6.03
2023-01-09T21:43:43.496Z,5.90
2023-01-09T21:46:32.787Z,5.78
2023-01-09T21:48:59.848Z,5.80
2023-01-09T21:51:26.639Z,5.88
2023-01-09T21:53:53.484Z,5.87
2023-01-09T21:56:21.537Z,5.91
2023-01-09T21:58:49.264Z,5.93
2023-01-09T22:01:16.369Z,5.97
2023-01-09T22:03:43.410Z,5.91
2023-01-09T22:06:10.251Z,6.01
2023-01-09T22:08:37.127Z,5.92
2023-01-09T22:11:04.591Z,6.00
2023-01-09T22:13:31.412Z,5.97
2023-01-09T22:16:05.624Z,6.07
2023-01-09T22:18:33.228Z,6.09
2023-01-09T22:21:00.443Z,6.26
2023-01-09T22:23:27.256Z,6.20
2023-01-09T22:25:54.526Z,6.09
2023-01-09T22:28:21.984Z,6.08
2023-01-09T22:30:48.870Z,6.11
2023-01-09T22:33:18.836Z,6.22
2023-01-09T22:35:45.651Z,6.15
2023-01-09T22:38:12.560Z,6.09
2023-01-09T22:40:39.921Z,6.00
2023-01-09T22:43:06.804Z,6.09
2023-01-09T22:45:33.828Z,6.12
2023-01-09T22:48:00.623Z,6.07
2023-01-09T22:50:27.498Z,5.90
2023-01-09T22:52:54.299Z,5.91
2023-01-09T22:55:21.131Z,5.83
2023-01-09T22:57:47.945Z,5.63
2023-01-09T23:00:15.018Z,5.58
2023-01-09T23:02:42.052Z,5.48
2023-01-09T23:05:09.012Z,5.43
2023-01-09T23:07:37.255Z,5.51
2023-01-09T23:10:05.549Z,5.47
2023-01-09T23:12:32.766Z,5.68
2023-01-09T23:15:00.222Z,5.69
2023-01-09T23:17:27.094Z,5.71
2023-01-09T23:19:53.998Z,5.67
2023-01-09T23:22:21.054Z,5.77
2023-01-09T23:24:47.858Z,5.86
2023-01-09T23:27:14.677Z,5.84
2023-01-09T23:29:41.517Z,5.73
2023-01-09T23:32:08.456Z,5.71
2023-01-09T23:34:35.372Z,5.71
2023-01-09T23:37:03.936Z,5.73
2023-01-09T23:39:30.861Z,5.80
2023-01-09T23:42:16.094Z,5.75
2023-01-09T23:44:42.907Z,5.75
2023-01-09T23:47:09.702Z,6.00
2023-01-09T23:49:36.656Z,6.02
2023-01-09T23:52:05.925Z,5.93
2023-01-09T23:54:32.758Z,5.94
2023-01-09T23:56:59.564Z,5.95
2023-01-09T23:59:26.375Z,5.90
